Latest Weather Observations for Lochington

IDQ60801

Issued at 9:02 am EST Tuesday 3 March 2015 (issued every 30 minutes, with the page automatically refreshed every 10 minutes)

About weather observations | Map of weather stations | Latest weather observations for QLD | Other Formats
Station Details ID: 035139 Name: LOCHINGTON Lat: -23.94 Lon: 147.53 Height: 267.19 m
Data from the previous 72 hours. | See also: Recent months at Lochington
Date/Time
EST
Temp
°C
App
Temp
°C
Dew
Point
Rel
Hum
%
Delta-T
°C
Wind Press
QNH
hPa
Press
MSL
hPa
Rain
since 9 am
mm
Dir
 
Spd
km/h
Gust
km/h
Spd
kts
Gust
kts
03/09:00am 26.7 27.2 19.3 64 4.8 E 15 22 8 12 1015.7 1014.2 6.8
03/08:30am 25.5 27.5 19.9 71 3.7 ENE 9 13 5 7 1015.8 1014.3 6.8
03/08:00am 25.4 26.9 19.8 71 3.7 ENE 11 19 6 10 1015.5 1013.9 6.8
03/07:30am 25.1 26.4 20.1 74 3.3 NE 13 19 7 10 1015.2 1013.6 6.8
03/07:00am 24.3 26.3 20.0 77 2.8 NE 9 15 5 8 1014.9 1013.3 6.8
03/06:30am 23.6 25.5 19.7 79 2.5 NE 9 13 5 7 1014.8 1013.2 6.8
03/06:00am 23.9 25.8 19.8 78 2.7 NE 9 15 5 8 1014.6 1013.0 6.8
03/05:30am 24.3 26.2 19.8 76 2.9 NE 9 13 5 7 1014.3 1012.7 6.8
03/05:00am 24.3 26.3 20.0 77 2.8 NE 9 15 5 8 1014.0 1012.4 6.8
03/04:30am 24.6 26.2 19.9 75 3.1 NE 11 17 6 9 1013.5 1011.9 6.8
03/04:00am 24.8 26.0 19.8 74 3.3 NE 13 17 7 9 1013.6 1012.0 6.8
03/03:30am 24.8 25.9 19.6 73 3.4 NE 13 20 7 11 1013.3 1011.7 6.8
03/03:00am 25.0 25.8 19.8 73 3.4 NE 15 22 8 12 1013.0 1011.4 6.8
03/02:30am 25.1 26.0 20.1 74 3.3 NE 15 24 8 13 1013.1 1011.5 6.8
03/02:00am 25.3 26.4 20.5 75 3.2 ENE 15 24 8 13 1012.8 1011.2 6.8
03/01:30am 25.4 26.4 20.2 73 3.4 ENE 15 22 8 12 1012.7 1011.1 6.8
03/01:00am 25.9 26.8 20.0 70 3.9 ENE 15 22 8 12 1012.5 1010.9 6.8
03/12:30am 26.6 26.2 20.2 68 4.2 NE 22 33 12 18 1012.1 1010.5 6.8
03/12:00am 27.1 28.3 20.7 68 4.3 NE 15 24 8 13 1012.0 1010.4 6.8
 
Date/Time
EST
Temp
°C
App
Temp
°C
Dew
Point
Rel
Hum
%
Delta-T
°C
Wind Press
QNH
hPa
Press
MSL
hPa
Rain
since 9 am
mm
Dir
 
Spd
km/h
Gust
km/h
Spd
kts
Gust
kts
02/11:30pm 27.8 28.5 20.4 64 4.9 NE 17 24 9 13 1011.9 1010.3 6.8
02/11:00pm 28.1 28.5 19.9 61 5.4 ENE 17 26 9 14 1011.6 1010.0 6.8
02/10:30pm 29.3 28.3 19.6 56 6.4 ENE 24 37 13 20 1011.3 1009.7 6.8
02/10:00pm 30.0 31.0 19.4 53 7.0 ENE 13 20 7 11 1011.1 1009.5 6.8
02/09:30pm 29.5 31.3 19.5 55 6.6 E 9 19 5 10 1011.0 1009.4 6.8
02/09:00pm 29.6 31.4 19.6 55 6.6 ENE 9 13 5 7 1010.6 1009.0 6.8
02/08:30pm 29.7 31.4 19.4 54 6.8 ENE 9 11 5 6 1010.2 1008.6 6.8
02/08:00pm 30.1 31.5 19.5 53 7.0 ENE 11 13 6 7 1009.6 1008.0 6.8
02/07:30pm 30.6 32.2 19.9 52 7.1 ENE 11 15 6 8 1009.3 1007.7 6.6
02/07:00pm 31.3 33.3 19.9 50 7.6 NE 9 13 5 7 1008.9 1007.2 6.6
02/06:30pm 31.7 33.3 20.0 50 7.8 ENE 11 15 6 8 1008.6 1006.9 6.6
02/06:00pm 32.4 35.2 21.6 53 7.4 ENE 9 13 5 7 1008.2 1006.6 6.6
02/05:30pm 32.5 36.6 22.3 55 7.0 SSE 4 6 2 3 1007.8 1006.2 6.6
02/05:00pm 32.0 36.0 22.7 58 6.4 SSE 6 7 3 4 1007.5 1005.9 6.6
02/04:30pm 29.6 34.8 24.2 73 3.8 WSW 4 6 2 3 1007.5 1005.9 6.6
02/04:00pm 26.4 30.7 23.7 85 1.9 WSW 7 11 4 6 1007.7 1006.1 6.6
02/03:36pm 25.4 24.4 20.4 74 3.3 SSE 26 63 14 34 1008.0 1006.4 1.2
02/03:30pm 31.8 32.7 20.1 50 7.8 SE 15 32 8 17 1007.7 1006.1 0.0
02/03:00pm 36.1 37.5 18.7 36 11.6 ENE 9 19 5 10 1007.4 1005.8 0.0
02/02:30pm 35.5 37.0 19.0 37 11.0 E 9 15 5 8 1007.5 1005.9 0.0
02/02:00pm 35.1 37.1 19.9 41 10.2 ENE 9 20 5 11 1008.1 1006.5 0.0
02/01:30pm 35.2 37.5 20.7 42 9.9 ENE 9 17 5 9 1008.6 1006.9 0.0
02/01:00pm 34.6 36.5 19.8 41 9.9 ESE 9 17 5 9 1009.3 1007.7 0.0
02/12:30pm 34.9 38.3 21.6 46 9.1 ESE 6 15 3 8 1009.8 1008.2 0.0
02/12:00pm 33.4 35.9 20.2 46 8.9 NE 7 15 4 8 1010.3 1008.7 0.0
02/11:30am 32.8 35.7 20.7 49 8.2 NNW 6 13 3 7 1010.9 1009.3 0.0
02/11:00am 32.6 34.8 20.5 49 8.2 NE 9 17 5 9 1011.4 1009.8 0.0
02/10:30am 31.5 34.5 20.8 53 7.2 NE 6 11 3 6 1011.6 1010.0 0.0
02/10:00am 30.5 33.1 20.4 54 6.8 N 7 11 4 6 1011.6 1010.0 0.0
02/09:30am 29.8 32.0 20.4 57 6.3 NNE 9 15 5 8 1011.7 1010.1 0.0
02/09:00am 28.8 30.7 20.5 61 5.5 NNE 11 19 6 10 1011.7 1010.1 0.0
02/08:30am 28.4 30.8 20.9 64 5.0 NNE 9 13 5 7 1011.6 1010.0 0.0
02/08:00am 27.0 29.1 20.1 66 4.6 NNE 9 13 5 7 1011.5 1009.9 0.0
02/07:30am 26.2 28.4 19.6 67 4.3 E 7 11 4 6 1011.3 1009.7 0.0
02/07:00am 24.5 26.7 19.6 74 3.2 E 7 11 4 6 1011.1 1009.5 0.0
02/06:30am 24.1 26.4 19.4 75 3.0 E 6 9 3 5 1010.8 1009.2 0.0
02/06:00am 24.0 25.7 19.3 75 3.0 E 9 11 5 6 1010.2 1008.6 0.0
02/05:30am 24.1 26.0 19.0 73 3.3 ENE 7 9 4 5 1009.8 1008.2 0.0
02/05:00am 24.6 26.5 19.0 71 3.6 ENE 7 11 4 6 1009.3 1007.7 0.0
02/04:30am 24.7 26.3 19.1 71 3.6 E 9 11 5 6 1008.8 1007.1 0.0
02/04:00am 25.1 27.1 19.2 70 3.8 ENE 7 11 4 6 1008.4 1006.7 0.0
02/03:30am 25.6 27.5 19.7 70 3.9 ENE 9 11 5 6 1008.2 1006.6 0.0
02/03:00am 26.1 28.1 20.0 69 4.0 ENE 9 15 5 8 1008.2 1006.6 0.0
02/02:30am 26.3 28.3 19.9 68 4.2 ENE 9 15 5 8 1008.2 1006.6 0.0
02/02:00am 26.3 28.2 19.7 67 4.3 ENE 9 13 5 7 1008.2 1006.6 0.0
02/01:30am 26.4 28.2 19.5 66 4.5 ENE 9 11 5 6 1008.4 1006.7 0.0
02/01:00am 26.9 28.8 19.0 62 5.1 ENE 7 11 4 6 1008.5 1006.8 0.0
02/12:30am 27.7 28.5 19.0 59 5.7 NNE 13 19 7 10 1008.5 1006.8 0.0
02/12:00am 28.3 28.9 18.7 56 6.2 NNE 13 20 7 11 1008.6 1006.9 0.0
 
Date/Time
EST
Temp
°C
App
Temp
°C
Dew
Point
Rel
Hum
%
Delta-T
°C
Wind Press
QNH
hPa
Press
MSL
hPa
Rain
since 9 am
mm
Dir
 
Spd
km/h
Gust
km/h
Spd
kts
Gust
kts
01/11:30pm 28.5 30.1 19.2 57 6.1 NNE 9 17 5 9 1008.6 1006.9 0.0
01/11:00pm 28.3 30.4 19.0 57 6.1 NE 6 7 3 4 1008.8 1007.1 0.0
01/10:30pm 29.0 30.8 18.7 53 6.7 NE 7 7 4 4 1008.7 1007.0 0.0
01/10:00pm 29.1 31.5 18.8 53 6.7 NE 4 6 2 3 1008.9 1007.2 0.0
01/09:30pm 29.8 31.5 18.6 51 7.3 ENE 7 9 4 5 1008.5 1006.8 0.0
01/09:00pm 30.4 32.2 18.8 50 7.6 ENE 7 11 4 6 1008.1 1006.5 0.0
01/08:30pm 30.3 31.7 18.7 50 7.6 ENE 9 11 5 6 1007.6 1006.0 0.0
01/08:00pm 30.6 32.0 18.7 49 7.8 ENE 9 11 5 6 1007.3 1005.7 0.0
01/07:30pm 31.3 33.0 18.6 46 8.3 ENE 7 11 4 6 1006.9 1005.3 0.0
01/07:00pm 32.0 33.4 18.6 45 8.8 NE 9 13 5 7 1006.4 1004.8 0.0
01/06:30pm 33.0 33.9 18.4 42 9.6 NE 11 17 6 9 1006.0 1004.4 0.0
01/06:00pm 34.0 34.4 18.1 39 10.4 NE 13 19 7 10 1005.7 1004.1 0.0
01/05:30pm 34.6 35.0 18.2 37 10.8 NE 13 19 7 10 1005.5 1003.8 0.0
01/05:00pm 35.2 36.1 18.3 36 11.2 NE 11 19 6 10 1005.5 1003.8 0.0
01/04:30pm 36.0 37.0 17.7 34 12.0 NW 9 15 5 8 1005.6 1004.0 0.0
01/04:00pm 36.0 37.4 18.6 36 11.6 N 9 19 5 10 1005.6 1004.0 0.0
01/03:30pm 36.4 38.1 18.5 35 11.9 NNW 7 15 4 8 1006.1 1004.5 0.0
01/03:00pm 35.5 36.5 17.7 35 11.7 NNW 9 24 5 13 1006.4 1004.8 0.0
01/02:30pm 35.7 37.5 18.7 36 11.3 NNW 7 17 4 9 1006.7 1005.1 0.0
01/02:00pm 35.1 36.3 18.2 36 11.1 NE 9 20 5 11 1007.0 1005.4 0.0
01/01:30pm 34.6 35.2 17.8 37 11.0 NE 11 17 6 9 1007.5 1005.9 0.0
01/01:00pm 33.6 34.6 17.7 38 10.4 NNE 9 20 5 11 1008.0 1006.4 0.0
01/12:30pm 33.4 33.7 18.0 40 10.0 N 13 22 7 12 1008.7 1007.0 0.0
01/12:00pm 32.7 32.7 18.1 42 9.5 N 15 22 8 12 1009.3 1007.7 0.0
01/11:30am 32.5 33.9 18.7 44 9.1 N 9 20 5 11 1009.9 1008.3 0.0
01/11:00am 31.1 32.2 18.1 46 8.4 NNE 9 20 5 11 1010.4 1008.8 0.0
01/10:30am 30.2 31.2 18.6 49 7.6 NE 11 20 6 11 1010.6 1009.0 0.0
01/10:00am 29.7 30.4 18.8 52 7.1 NNE 13 20 7 11 1010.8 1009.2 0.0
01/09:30am 28.8 29.8 19.4 56 6.2 NE 13 20 7 11 1011.0 1009.2 0.0
01/09:00am 27.4 28.1 18.9 59 5.5 NNE 13 20 7 11 1011.0 1009.2 0.0
01/08:30am 27.4 29.0 20.0 64 4.9 NE 11 19 6 10 1010.9 1009.1 0.0
01/08:00am 26.2 27.6 19.6 67 4.3 NE 11 17 6 9 1010.7 1008.9 0.0
01/07:30am 25.2 26.7 19.8 72 3.5 NE 11 15 6 8 1010.4 1008.6 0.0
01/07:00am 24.0 26.0 19.9 78 2.7 NE 9 13 5 7 1010.4 1008.6 0.0
01/06:30am 23.6 26.1 19.9 80 2.4 ENE 6 9 3 5 1009.9 1008.1 0.0
01/06:00am 23.2 26.1 19.8 81 2.2 NE 4 6 2 3 1009.6 1007.8 0.0
01/05:30am 23.0 25.7 19.4 80 2.3 ENE 4 7 2 4 1009.3 1007.5 0.0
01/05:00am 23.3 25.5 19.2 78 2.6 ENE 6 7 3 4 1009.0 1007.2 0.0
01/04:30am 23.9 26.1 19.2 75 3.0 NE 6 9 3 5 1008.7 1006.9 0.0
01/04:00am 24.1 25.7 19.2 74 3.2 NE 9 15 5 8 1008.6 1006.8 0.0
01/03:30am 23.8 25.3 18.9 74 3.1 ENE 9 13 5 7 1008.4 1006.6 0.0
01/03:00am 24.2 25.3 18.8 72 3.5 NE 11 17 6 9 1008.1 1006.4 0.0
01/02:30am 24.5 25.5 18.7 70 3.7 NE 11 20 6 11 1008.0 1006.3 0.0
01/02:00am 24.8 25.7 18.3 67 4.2 ENE 11 17 6 9 1008.2 1006.5 0.0
01/01:30am 25.1 25.5 18.1 65 4.5 NE 13 20 7 11 1008.5 1006.7 0.0
01/01:00am 25.7 26.0 17.9 62 5.0 NE 13 20 7 11 1008.7 1006.9 0.0
01/12:30am 26.1 26.1 18.2 61 5.1 NE 15 22 8 12 1009.0 1007.2 0.0
01/12:00am 26.7 26.4 18.3 60 5.4 NE 17 24 9 13 1009.0 1007.2 0.0
 
Date/Time
EST
Temp
°C
App
Temp
°C
Dew
Point
Rel
Hum
%
Delta-T
°C
Wind Press
QNH
hPa
Press
MSL
hPa
Rain
since 9 am
mm
Dir
 
Spd
km/h
Gust
km/h
Spd
kts
Gust
kts
28/11:30pm 27.4 27.4 18.9 59 5.5 NE 17 24 9 13 1008.9 1007.1 0.0
28/11:00pm 27.9 27.5 19.4 60 5.6 NE 20 32 11 17 1008.6 1006.8 0.0
28/10:30pm 28.7 28.5 19.3 56 6.2 NNE 19 28 10 15 1008.2 1006.5 0.0
28/10:00pm 29.4 29.3 18.8 53 6.9 NE 17 28 9 15 1007.8 1006.1 0.0
28/09:30pm 29.1 30.3 19.1 54 6.5 ENE 11 17 6 9 1007.7 1005.9 0.0
28/09:00pm 29.9 30.5 18.7 51 7.3 NE 13 17 7 9 1007.4 1005.6 0.0
28/08:30pm 30.4 31.9 18.8 50 7.6 NNE 9 15 5 8 1006.9 1005.1 0.0
28/08:00pm 31.0 32.4 18.7 48 8.1 NE 9 13 5 7 1006.5 1004.7 0.0
28/07:30pm 31.4 33.1 18.4 46 8.5 NE 7 9 4 5 1006.1 1004.3 0.0
28/07:00pm 31.9 33.4 18.1 43 9.0 NE 7 11 4 6 1005.5 1003.7 0.0
28/06:30pm 33.0 34.1 18.0 41 9.8 NE 9 11 5 6 1005.2 1003.4 0.0
28/06:00pm 34.4 35.7 18.4 38 10.6 NE 9 15 5 8 1004.8 1003.0 0.0
28/05:30pm 34.4 35.9 18.0 37 10.7 NNE 7 11 4 6 1004.9 1003.1 0.0
28/05:00pm 34.9 36.6 18.0 36 11.1 ENE 6 9 3 5 1004.8 1003.0 0.0
28/04:30pm 35.7 36.6 18.3 35 11.5 ENE 11 17 6 9 1004.6 1002.8 0.0
28/04:00pm 34.8 36.5 18.4 38 10.8 NNE 7 11 4 6 1004.8 1003.0 0.0
28/03:30pm 35.9 38.4 19.8 39 10.8 NE 6 17 3 9 1004.9 1003.1 0.0
28/03:00pm 35.3 37.5 19.2 38 10.8 ENE 6 17 3 9 1005.1 1003.3 0.0
28/02:30pm 34.1 37.1 20.1 43 9.4 NNE 4 9 2 5 1005.6 1003.8 0.0
28/02:00pm 33.5 36.4 20.6 46 8.7 NNW 6 13 3 7 1006.0 1004.2 0.0
28/01:30pm 33.6 35.8 20.4 46 8.9 NNE 9 19 5 10 1006.4 1004.6 0.0
28/01:00pm 34.7 38.2 22.1 48 8.7 NE 7 13 4 7 1006.9 1005.1 0.0
28/12:30pm 33.1 35.2 20.9 48 8.3 NW 11 19 6 10 1007.4 1005.6 0.0
28/12:00pm 32.7 35.5 21.5 51 7.7 NNE 9 20 5 11 1007.8 1006.1 0.0
28/11:30am 31.9 33.8 21.4 53 7.1 NE 13 20 7 11 1008.5 1006.7 0.0
28/11:00am 31.4 34.2 21.6 56 6.7 NNE 9 20 5 11 1009.1 1007.3 0.0
28/10:30am 29.2 31.1 20.6 59 5.7 NNW 11 20 6 11 1009.6 1007.8 0.0
28/10:00am 28.2 29.7 20.5 63 5.1 NNE 13 20 7 11 1009.9 1008.1 0.0
28/09:30am 27.9 29.2 20.2 63 5.1 NNE 13 24 7 13 1010.1 1008.3 0.0

Other Formats:

Comma delimited format used in spreadsheet applications
http://www.bom.gov.au/fwo/IDQ60801/IDQ60801.94399.axf

JavaScript Object Notation format (JSON) in row-major order
http://www.bom.gov.au/fwo/IDQ60801/IDQ60801.94399.json